sensor_id;sensor_type;location;lat;lon;timestamp;P1;durP1;ratioP1;P2;durP2;ratioP2
18259;SDS011;9256;52.236;5.712;2024-03-07T00:00:44;74.17;;;25.00;;
18259;SDS011;9256;52.236;5.712;2024-03-07T00:03:12;78.93;;;24.73;;
18259;SDS011;9256;52.236;5.712;2024-03-07T00:05:39;80.40;;;25.57;;
18259;SDS011;9256;52.236;5.712;2024-03-07T00:08:06;77.17;;;23.77;;
18259;SDS011;9256;52.236;5.712;2024-03-07T00:10:35;82.67;;;25.00;;
18259;SDS011;9256;52.236;5.712;2024-03-07T00:13:02;82.23;;;24.50;;
18259;SDS011;9256;52.236;5.712;2024-03-07T00:15:33;70.07;;;23.13;;
18259;SDS011;9256;52.236;5.712;2024-03-07T00:18:00;70.17;;;22.53;;
18259;SDS011;9256;52.236;5.712;2024-03-07T00:20:27;74.20;;;24.37;;
18259;SDS011;9256;52.236;5.712;2024-03-07T00:22:54;82.43;;;25.20;;
18259;SDS011;9256;52.236;5.712;2024-03-07T00:25:22;77.63;;;24.60;;
18259;SDS011;9256;52.236;5.712;2024-03-07T00:27:49;76.33;;;24.37;;
18259;SDS011;9256;52.236;5.712;2024-03-07T00:30:18;81.70;;;25.23;;
18259;SDS011;9256;52.236;5.712;2024-03-07T00:32:46;79.00;;;24.33;;
18259;SDS011;9256;52.236;5.712;2024-03-07T00:35:13;86.97;;;24.80;;
18259;SDS011;9256;52.236;5.712;2024-03-07T00:37:41;73.80;;;24.70;;
18259;SDS011;9256;52.236;5.712;2024-03-07T00:40:08;74.87;;;24.10;;
18259;SDS011;9256;52.236;5.712;2024-03-07T00:42:38;78.73;;;23.10;;
18259;SDS011;9256;52.236;5.712;2024-03-07T00:45:05;77.83;;;24.03;;
18259;SDS011;9256;52.236;5.712;2024-03-07T00:47:32;75.93;;;23.17;;
18259;SDS011;9256;52.236;5.712;2024-03-07T00:50:01;76.17;;;23.47;;
18259;SDS011;9256;52.236;5.712;2024-03-07T00:52:28;79.80;;;23.90;;
18259;SDS011;9256;52.236;5.712;2024-03-07T00:54:55;71.27;;;23.00;;
18259;SDS011;9256;52.236;5.712;2024-03-07T00:57:22;75.83;;;23.33;;
18259;SDS011;9256;52.236;5.712;2024-03-07T00:59:49;72.83;;;23.33;;
18259;SDS011;9256;52.236;5.712;2024-03-07T01:02:16;79.77;;;23.63;;
18259;SDS011;9256;52.236;5.712;2024-03-07T01:04:43;67.13;;;22.70;;
18259;SDS011;9256;52.236;5.712;2024-03-07T01:07:11;71.17;;;23.17;;
18259;SDS011;9256;52.236;5.712;2024-03-07T01:09:38;72.33;;;23.50;;
18259;SDS011;9256;52.236;5.712;2024-03-07T01:12:05;73.67;;;23.67;;
18259;SDS011;9256;52.236;5.712;2024-03-07T01:14:35;91.32;;;31.63;;
18259;SDS011;9256;52.236;5.712;2024-03-07T01:17:02;71.00;;;24.43;;
18259;SDS011;9256;52.236;5.712;2024-03-07T01:19:32;70.50;;;23.57;;
18259;SDS011;9256;52.236;5.712;2024-03-07T01:21:59;75.03;;;22.90;;
18259;SDS011;9256;52.236;5.712;2024-03-07T01:24:27;68.63;;;22.10;;
18259;SDS011;9256;52.236;5.712;2024-03-07T01:26:54;67.77;;;22.80;;
18259;SDS011;9256;52.236;5.712;2024-03-07T01:29:21;80.43;;;23.50;;
18259;SDS011;9256;52.236;5.712;2024-03-07T01:31:48;69.93;;;22.47;;
18259;SDS011;9256;52.236;5.712;2024-03-07T01:34:15;72.83;;;23.23;;
18259;SDS011;9256;52.236;5.712;2024-03-07T01:36:42;74.97;;;23.60;;
18259;SDS011;9256;52.236;5.712;2024-03-07T01:39:09;78.13;;;24.27;;
18259;SDS011;9256;52.236;5.712;2024-03-07T01:41:39;82.07;;;24.50;;
18259;SDS011;9256;52.236;5.712;2024-03-07T01:44:06;82.53;;;25.07;;
18259;SDS011;9256;52.236;5.712;2024-03-07T01:46:33;87.97;;;25.00;;
18259;SDS011;9256;52.236;5.712;2024-03-07T01:49:00;75.93;;;24.67;;
18259;SDS011;9256;52.236;5.712;2024-03-07T01:51:28;79.47;;;24.73;;
18259;SDS011;9256;52.236;5.712;2024-03-07T01:53:55;111.50;;;24.73;;
18259;SDS011;9256;52.236;5.712;2024-03-07T01:56:22;82.77;;;23.73;;
18259;SDS011;9256;52.236;5.712;2024-03-07T01:58:51;80.00;;;23.60;;
18259;SDS011;9256;52.236;5.712;2024-03-07T02:01:19;85.53;;;25.37;;
18259;SDS011;9256;52.236;5.712;2024-03-07T02:03:47;76.73;;;22.97;;
18259;SDS011;9256;52.236;5.712;2024-03-07T02:06:13;124.93;;;24.27;;
18259;SDS011;9256;52.236;5.712;2024-03-07T02:08:41;70.93;;;23.30;;
18259;SDS011;9256;52.236;5.712;2024-03-07T02:11:08;72.83;;;23.13;;
18259;SDS011;9256;52.236;5.712;2024-03-07T02:13:35;66.37;;;22.20;;
18259;SDS011;9256;52.236;5.712;2024-03-07T02:16:04;70.20;;;21.67;;
18259;SDS011;9256;52.236;5.712;2024-03-07T02:18:32;61.67;;;22.00;;
18259;SDS011;9256;52.236;5.712;2024-03-07T02:21:01;81.97;;;21.33;;
18259;SDS011;9256;52.236;5.712;2024-03-07T02:23:32;69.77;;;20.97;;
18259;SDS011;9256;52.236;5.712;2024-03-07T02:25:59;62.87;;;21.40;;
18259;SDS011;9256;52.236;5.712;2024-03-07T02:28:26;58.50;;;21.03;;
18259;SDS011;9256;52.236;5.712;2024-03-07T02:30:53;68.80;;;24.27;;
18259;SDS011;9256;52.236;5.712;2024-03-07T02:33:20;99.10;;;22.83;;
18259;SDS011;9256;52.236;5.712;2024-03-07T02:35:48;65.30;;;21.33;;
18259;SDS011;9256;52.236;5.712;2024-03-07T02:38:16;61.20;;;20.70;;
18259;SDS011;9256;52.236;5.712;2024-03-07T02:40:44;75.10;;;21.07;;
18259;SDS011;9256;52.236;5.712;2024-03-07T02:43:12;92.00;;;21.23;;
18259;SDS011;9256;52.236;5.712;2024-03-07T02:45:39;89.47;;;25.17;;
18259;SDS011;9256;52.236;5.712;2024-03-07T02:48:06;77.37;;;22.13;;
18259;SDS011;9256;52.236;5.712;2024-03-07T02:50:34;88.37;;;21.27;;
18259;SDS011;9256;52.236;5.712;2024-03-07T02:53:02;77.67;;;23.03;;
18259;SDS011;9256;52.236;5.712;2024-03-07T02:55:31;72.43;;;21.63;;
18259;SDS011;9256;52.236;5.712;2024-03-07T02:57:58;81.63;;;21.83;;
18259;SDS011;9256;52.236;5.712;2024-03-07T03:00:25;67.37;;;21.03;;
18259;SDS011;9256;52.236;5.712;2024-03-07T03:02:54;62.63;;;20.17;;
18259;SDS011;9256;52.236;5.712;2024-03-07T03:05:22;68.13;;;20.70;;
18259;SDS011;9256;52.236;5.712;2024-03-07T03:07:49;62.60;;;21.80;;
18259;SDS011;9256;52.236;5.712;2024-03-07T03:10:20;63.20;;;21.17;;
18259;SDS011;9256;52.236;5.712;2024-03-07T03:12:51;56.87;;;20.23;;
18259;SDS011;9256;52.236;5.712;2024-03-07T03:15:19;67.17;;;20.07;;
18259;SDS011;9256;52.236;5.712;2024-03-07T03:17:46;60.27;;;19.80;;
18259;SDS011;9256;52.236;5.712;2024-03-07T03:20:14;64.43;;;21.33;;
18259;SDS011;9256;52.236;5.712;2024-03-07T03:22:49;66.57;;;21.63;;
18259;SDS011;9256;52.236;5.712;2024-03-07T03:25:18;75.97;;;22.17;;
18259;SDS011;9256;52.236;5.712;2024-03-07T03:27:45;72.87;;;22.70;;
18259;SDS011;9256;52.236;5.712;2024-03-07T03:30:14;78.37;;;23.03;;
18259;SDS011;9256;52.236;5.712;2024-03-07T03:32:43;78.27;;;23.80;;
18259;SDS011;9256;52.236;5.712;2024-03-07T03:35:11;69.33;;;21.67;;
18259;SDS011;9256;52.236;5.712;2024-03-07T03:37:39;70.50;;;22.53;;
18259;SDS011;9256;52.236;5.712;2024-03-07T03:40:07;87.93;;;24.40;;
18259;SDS011;9256;52.236;5.712;2024-03-07T03:42:35;83.27;;;24.43;;
18259;SDS011;9256;52.236;5.712;2024-03-07T03:45:03;81.33;;;23.43;;
18259;SDS011;9256;52.236;5.712;2024-03-07T03:47:32;77.17;;;23.43;;
18259;SDS011;9256;52.236;5.712;2024-03-07T03:50:01;84.07;;;24.67;;
18259;SDS011;9256;52.236;5.712;2024-03-07T03:52:29;85.50;;;23.97;;
18259;SDS011;9256;52.236;5.712;2024-03-07T03:54:56;86.40;;;24.10;;
18259;SDS011;9256;52.236;5.712;2024-03-07T03:57:23;80.50;;;24.67;;
18259;SDS011;9256;52.236;5.712;2024-03-07T03:59:50;86.07;;;25.33;;
18259;SDS011;9256;52.236;5.712;2024-03-07T04:02:17;87.40;;;26.27;;
18259;SDS011;9256;52.236;5.712;2024-03-07T04:04:46;86.77;;;24.97;;
18259;SDS011;9256;52.236;5.712;2024-03-07T04:07:13;96.70;;;26.27;;
18259;SDS011;9256;52.236;5.712;2024-03-07T04:09:41;86.00;;;25.60;;
18259;SDS011;9256;52.236;5.712;2024-03-07T04:12:09;85.90;;;25.87;;
18259;SDS011;9256;52.236;5.712;2024-03-07T04:14:36;82.67;;;24.67;;
18259;SDS011;9256;52.236;5.712;2024-03-07T04:17:03;93.17;;;27.00;;
18259;SDS011;9256;52.236;5.712;2024-03-07T04:19:32;86.67;;;24.23;;
18259;SDS011;9256;52.236;5.712;2024-03-07T04:22:01;108.32;;;36.40;;
18259;SDS011;9256;52.236;5.712;2024-03-07T04:24:29;94.23;;;28.43;;
18259;SDS011;9256;52.236;5.712;2024-03-07T04:26:58;87.03;;;27.10;;
18259;SDS011;9256;52.236;5.712;2024-03-07T04:29:25;86.00;;;25.80;;
18259;SDS011;9256;52.236;5.712;2024-03-07T04:31:51;86.53;;;25.60;;
18259;SDS011;9256;52.236;5.712;2024-03-07T04:34:19;94.10;;;25.93;;
18259;SDS011;9256;52.236;5.712;2024-03-07T04:36:45;83.57;;;23.70;;
18259;SDS011;9256;52.236;5.712;2024-03-07T04:39:14;77.03;;;23.60;;
18259;SDS011;9256;52.236;5.712;2024-03-07T04:41:52;75.53;;;23.23;;
18259;SDS011;9256;52.236;5.712;2024-03-07T04:44:20;74.93;;;23.10;;
18259;SDS011;9256;52.236;5.712;2024-03-07T04:46:47;76.83;;;22.87;;
18259;SDS011;9256;52.236;5.712;2024-03-07T04:49:16;72.23;;;23.20;;
18259;SDS011;9256;52.236;5.712;2024-03-07T04:51:43;74.80;;;21.97;;
18259;SDS011;9256;52.236;5.712;2024-03-07T04:54:14;77.63;;;23.10;;
18259;SDS011;9256;52.236;5.712;2024-03-07T04:56:41;77.90;;;24.20;;
18259;SDS011;9256;52.236;5.712;2024-03-07T04:59:08;76.17;;;23.30;;
18259;SDS011;9256;52.236;5.712;2024-03-07T05:01:36;75.60;;;22.30;;
18259;SDS011;9256;52.236;5.712;2024-03-07T05:04:03;75.43;;;23.77;;
18259;SDS011;9256;52.236;5.712;2024-03-07T05:06:31;75.90;;;22.80;;
18259;SDS011;9256;52.236;5.712;2024-03-07T05:08:59;77.80;;;23.30;;
18259;SDS011;9256;52.236;5.712;2024-03-07T05:11:28;79.63;;;23.43;;
18259;SDS011;9256;52.236;5.712;2024-03-07T05:13:55;78.03;;;24.10;;
18259;SDS011;9256;52.236;5.712;2024-03-07T05:16:22;85.13;;;24.83;;
18259;SDS011;9256;52.236;5.712;2024-03-07T05:18:49;92.83;;;26.23;;
18259;SDS011;9256;52.236;5.712;2024-03-07T05:21:17;80.27;;;25.53;;
18259;SDS011;9256;52.236;5.712;2024-03-07T05:23:59;85.37;;;24.83;;
18259;SDS011;9256;52.236;5.712;2024-03-07T05:26:29;84.00;;;24.53;;
18259;SDS011;9256;52.236;5.712;2024-03-07T05:28:58;88.53;;;24.40;;
18259;SDS011;9256;52.236;5.712;2024-03-07T05:31:28;78.10;;;23.33;;
18259;SDS011;9256;52.236;5.712;2024-03-07T05:33:55;78.13;;;23.40;;
18259;SDS011;9256;52.236;5.712;2024-03-07T05:36:22;87.47;;;26.67;;
18259;SDS011;9256;52.236;5.712;2024-03-07T05:38:49;79.43;;;23.40;;
18259;SDS011;9256;52.236;5.712;2024-03-07T05:41:17;84.77;;;23.93;;
18259;SDS011;9256;52.236;5.712;2024-03-07T05:43:45;71.53;;;22.77;;
18259;SDS011;9256;52.236;5.712;2024-03-07T05:46:12;78.23;;;23.77;;
18259;SDS011;9256;52.236;5.712;2024-03-07T05:48:39;77.10;;;23.50;;
18259;SDS011;9256;52.236;5.712;2024-03-07T05:51:06;72.50;;;22.07;;
18259;SDS011;9256;52.236;5.712;2024-03-07T05:53:35;83.50;;;23.23;;
18259;SDS011;9256;52.236;5.712;2024-03-07T05:56:02;73.30;;;24.00;;
18259;SDS011;9256;52.236;5.712;2024-03-07T05:58:33;107.63;;;35.42;;
18259;SDS011;9256;52.236;5.712;2024-03-07T06:01:01;86.07;;;26.20;;
18259;SDS011;9256;52.236;5.712;2024-03-07T06:03:28;84.63;;;24.90;;
18259;SDS011;9256;52.236;5.712;2024-03-07T06:05:55;81.40;;;24.37;;
18259;SDS011;9256;52.236;5.712;2024-03-07T06:08:22;78.87;;;25.10;;
18259;SDS011;9256;52.236;5.712;2024-03-07T06:10:49;91.20;;;26.17;;
18259;SDS011;9256;52.236;5.712;2024-03-07T06:13:16;84.90;;;25.43;;
18259;SDS011;9256;52.236;5.712;2024-03-07T06:15:44;84.50;;;24.93;;
18259;SDS011;9256;52.236;5.712;2024-03-07T06:18:14;82.80;;;24.90;;
18259;SDS011;9256;52.236;5.712;2024-03-07T06:20:41;87.10;;;24.17;;
18259;SDS011;9256;52.236;5.712;2024-03-07T06:23:08;77.23;;;23.70;;
18259;SDS011;9256;52.236;5.712;2024-03-07T06:25:37;81.37;;;25.13;;
18259;SDS011;9256;52.236;5.712;2024-03-07T06:28:12;79.37;;;24.67;;
18259;SDS011;9256;52.236;5.712;2024-03-07T06:30:40;83.57;;;25.07;;
18259;SDS011;9256;52.236;5.712;2024-03-07T06:33:13;87.00;;;26.27;;
18259;SDS011;9256;52.236;5.712;2024-03-07T06:35:42;86.90;;;25.43;;
18259;SDS011;9256;52.236;5.712;2024-03-07T06:38:09;76.73;;;24.93;;
18259;SDS011;9256;52.236;5.712;2024-03-07T06:40:37;82.37;;;25.27;;
18259;SDS011;9256;52.236;5.712;2024-03-07T06:43:05;91.50;;;26.30;;
18259;SDS011;9256;52.236;5.712;2024-03-07T06:45:32;96.97;;;26.03;;
18259;SDS011;9256;52.236;5.712;2024-03-07T06:48:00;82.63;;;25.67;;
18259;SDS011;9256;52.236;5.712;2024-03-07T06:50:29;86.30;;;25.30;;
18259;SDS011;9256;52.236;5.712;2024-03-07T06:52:56;86.40;;;26.17;;
18259;SDS011;9256;52.236;5.712;2024-03-07T06:55:23;90.60;;;26.43;;
18259;SDS011;9256;52.236;5.712;2024-03-07T06:57:50;82.90;;;25.20;;
18259;SDS011;9256;52.236;5.712;2024-03-07T07:00:17;89.37;;;26.03;;
18259;SDS011;9256;52.236;5.712;2024-03-07T07:02:45;89.90;;;25.83;;
18259;SDS011;9256;52.236;5.712;2024-03-07T07:05:12;88.43;;;25.17;;
18259;SDS011;9256;52.236;5.712;2024-03-07T07:07:42;89.67;;;26.43;;
18259;SDS011;9256;52.236;5.712;2024-03-07T07:10:09;88.50;;;25.63;;
18259;SDS011;9256;52.236;5.712;2024-03-07T07:12:41;93.33;;;26.90;;
18259;SDS011;9256;52.236;5.712;2024-03-07T07:15:09;88.40;;;25.60;;
18259;SDS011;9256;52.236;5.712;2024-03-07T07:17:37;91.13;;;26.50;;
18259;SDS011;9256;52.236;5.712;2024-03-07T07:20:04;87.13;;;26.23;;
18259;SDS011;9256;52.236;5.712;2024-03-07T07:22:35;87.30;;;25.67;;
18259;SDS011;9256;52.236;5.712;2024-03-07T07:25:05;88.10;;;25.63;;
18259;SDS011;9256;52.236;5.712;2024-03-07T07:27:38;94.47;;;26.60;;
18259;SDS011;9256;52.236;5.712;2024-03-07T07:30:07;90.40;;;26.00;;
18259;SDS011;9256;52.236;5.712;2024-03-07T07:32:35;88.47;;;26.13;;
18259;SDS011;9256;52.236;5.712;2024-03-07T07:35:02;91.07;;;26.63;;
18259;SDS011;9256;52.236;5.712;2024-03-07T07:37:30;92.33;;;26.47;;
18259;SDS011;9256;52.236;5.712;2024-03-07T07:39:57;109.70;;;31.55;;
18259;SDS011;9256;52.236;5.712;2024-03-07T07:42:26;98.17;;;28.23;;
18259;SDS011;9256;52.236;5.712;2024-03-07T07:44:53;86.63;;;25.80;;
18259;SDS011;9256;52.236;5.712;2024-03-07T07:47:20;87.00;;;26.17;;
18259;SDS011;9256;52.236;5.712;2024-03-07T07:49:47;94.47;;;26.77;;
18259;SDS011;9256;52.236;5.712;2024-03-07T07:52:14;94.00;;;27.70;;
18259;SDS011;9256;52.236;5.712;2024-03-07T07:54:42;94.87;;;27.07;;
18259;SDS011;9256;52.236;5.712;2024-03-07T07:57:09;96.47;;;26.73;;
18259;SDS011;9256;52.236;5.712;2024-03-07T07:59:37;98.03;;;27.17;;
18259;SDS011;9256;52.236;5.712;2024-03-07T08:02:05;98.27;;;26.77;;
18259;SDS011;9256;52.236;5.712;2024-03-07T08:04:32;117.30;;;38.00;;
18259;SDS011;9256;52.236;5.712;2024-03-07T08:06:59;105.73;;;29.43;;
18259;SDS011;9256;52.236;5.712;2024-03-07T08:09:26;105.63;;;28.27;;
18259;SDS011;9256;52.236;5.712;2024-03-07T08:11:53;94.00;;;27.90;;
18259;SDS011;9256;52.236;5.712;2024-03-07T08:14:20;100.73;;;28.37;;
18259;SDS011;9256;52.236;5.712;2024-03-07T08:16:49;105.23;;;28.37;;
18259;SDS011;9256;52.236;5.712;2024-03-07T08:19:16;95.63;;;27.80;;
18259;SDS011;9256;52.236;5.712;2024-03-07T08:21:43;99.43;;;28.37;;
18259;SDS011;9256;52.236;5.712;2024-03-07T08:24:10;93.00;;;26.67;;
18259;SDS011;9256;52.236;5.712;2024-03-07T08:26:37;95.90;;;27.23;;
18259;SDS011;9256;52.236;5.712;2024-03-07T08:29:09;97.87;;;28.53;;
18259;SDS011;9256;52.236;5.712;2024-03-07T08:31:38;95.20;;;28.43;;
18259;SDS011;9256;52.236;5.712;2024-03-07T08:34:06;94.10;;;28.43;;
18259;SDS011;9256;52.236;5.712;2024-03-07T08:36:33;95.30;;;27.63;;
18259;SDS011;9256;52.236;5.712;2024-03-07T08:39:01;99.50;;;28.23;;
18259;SDS011;9256;52.236;5.712;2024-03-07T08:41:29;98.00;;;29.00;;
18259;SDS011;9256;52.236;5.712;2024-03-07T08:44:01;90.20;;;27.47;;
18259;SDS011;9256;52.236;5.712;2024-03-07T08:46:28;85.60;;;26.93;;
18259;SDS011;9256;52.236;5.712;2024-03-07T08:48:55;92.63;;;27.77;;
18259;SDS011;9256;52.236;5.712;2024-03-07T08:51:24;87.23;;;26.97;;
18259;SDS011;9256;52.236;5.712;2024-03-07T08:53:51;86.47;;;27.70;;
18259;SDS011;9256;52.236;5.712;2024-03-07T08:56:18;94.53;;;26.80;;
18259;SDS011;9256;52.236;5.712;2024-03-07T08:58:45;81.83;;;25.83;;
18259;SDS011;9256;52.236;5.712;2024-03-07T09:01:12;81.30;;;26.07;;
18259;SDS011;9256;52.236;5.712;2024-03-07T09:03:39;79.97;;;25.37;;
18259;SDS011;9256;52.236;5.712;2024-03-07T09:06:06;79.20;;;26.17;;
18259;SDS011;9256;52.236;5.712;2024-03-07T09:08:34;81.43;;;25.93;;
18259;SDS011;9256;52.236;5.712;2024-03-07T09:11:01;76.03;;;25.30;;
18259;SDS011;9256;52.236;5.712;2024-03-07T09:13:28;54.95;;;25.77;;
18259;SDS011;9256;52.236;5.712;2024-03-07T09:15:55;57.60;;;21.80;;
18259;SDS011;9256;52.236;5.712;2024-03-07T09:18:22;56.17;;;21.17;;
18259;SDS011;9256;52.236;5.712;2024-03-07T09:20:50;54.97;;;20.27;;
18259;SDS011;9256;52.236;5.712;2024-03-07T09:23:17;53.37;;;19.93;;
18259;SDS011;9256;52.236;5.712;2024-03-07T09:25:45;60.78;;;21.23;;
18259;SDS011;9256;52.236;5.712;2024-03-07T09:28:12;59.20;;;20.50;;
18259;SDS011;9256;52.236;5.712;2024-03-07T09:30:40;64.33;;;20.80;;
18259;SDS011;9256;52.236;5.712;2024-03-07T09:33:07;57.37;;;19.67;;
18259;SDS011;9256;52.236;5.712;2024-03-07T09:35:36;57.30;;;19.17;;
18259;SDS011;9256;52.236;5.712;2024-03-07T09:38:04;55.40;;;18.43;;
18259;SDS011;9256;52.236;5.712;2024-03-07T09:40:31;53.28;;;18.27;;
18259;SDS011;9256;52.236;5.712;2024-03-07T09:43:00;50.33;;;17.67;;
18259;SDS011;9256;52.236;5.712;2024-03-07T09:45:28;44.78;;;16.45;;
18259;SDS011;9256;52.236;5.712;2024-03-07T09:47:57;42.47;;;16.20;;
18259;SDS011;9256;52.236;5.712;2024-03-07T09:50:25;38.17;;;15.27;;
18259;SDS011;9256;52.236;5.712;2024-03-07T09:52:55;37.93;;;13.70;;
18259;SDS011;9256;52.236;5.712;2024-03-07T09:55:25;33.25;;;13.60;;
18259;SDS011;9256;52.236;5.712;2024-03-07T09:57:52;34.53;;;13.55;;
18259;SDS011;9256;52.236;5.712;2024-03-07T10:00:21;33.53;;;13.27;;
18259;SDS011;9256;52.236;5.712;2024-03-07T10:02:53;34.10;;;13.07;;
18259;SDS011;9256;52.236;5.712;2024-03-07T10:05:23;31.85;;;12.65;;
18259;SDS011;9256;52.236;5.712;2024-03-07T10:07:51;33.55;;;16.15;;
18259;SDS011;9256;52.236;5.712;2024-03-07T10:10:18;32.97;;;14.05;;
18259;SDS011;9256;52.236;5.712;2024-03-07T10:12:46;35.67;;;13.27;;
18259;SDS011;9256;52.236;5.712;2024-03-07T10:15:14;31.33;;;13.27;;
18259;SDS011;9256;52.236;5.712;2024-03-07T10:17:44;31.80;;;13.35;;
18259;SDS011;9256;52.236;5.712;2024-03-07T10:20:12;34.42;;;13.77;;
18259;SDS011;9256;52.236;5.712;2024-03-07T10:22:40;32.70;;;13.38;;
18259;SDS011;9256;52.236;5.712;2024-03-07T10:25:07;32.30;;;13.43;;
18259;SDS011;9256;52.236;5.712;2024-03-07T10:27:36;31.42;;;13.13;;
18259;SDS011;9256;52.236;5.712;2024-03-07T10:30:04;36.03;;;14.35;;
18259;SDS011;9256;52.236;5.712;2024-03-07T10:32:33;30.85;;;13.25;;
18259;SDS011;9256;52.236;5.712;2024-03-07T10:35:02;33.22;;;15.93;;
18259;SDS011;9256;52.236;5.712;2024-03-07T10:37:34;34.78;;;13.50;;
18259;SDS011;9256;52.236;5.712;2024-03-07T10:40:02;32.08;;;13.60;;
18259;SDS011;9256;52.236;5.712;2024-03-07T10:42:40;31.98;;;13.45;;
18259;SDS011;9256;52.236;5.712;2024-03-07T10:45:11;30.48;;;13.07;;
18259;SDS011;9256;52.236;5.712;2024-03-07T10:47:41;36.58;;;13.80;;
18259;SDS011;9256;52.236;5.712;2024-03-07T10:50:14;33.85;;;15.38;;
18259;SDS011;9256;52.236;5.712;2024-03-07T10:52:48;31.30;;;13.70;;
18259;SDS011;9256;52.236;5.712;2024-03-07T10:55:28;32.63;;;14.25;;
18259;SDS011;9256;52.236;5.712;2024-03-07T10:58:05;32.72;;;13.20;;
18259;SDS011;9256;52.236;5.712;2024-03-07T11:00:38;34.25;;;13.60;;
18259;SDS011;9256;52.236;5.712;2024-03-07T11:03:10;37.28;;;13.10;;
18259;SDS011;9256;52.236;5.712;2024-03-07T11:05:40;32.13;;;13.38;;
18259;SDS011;9256;52.236;5.712;2024-03-07T11:08:08;29.17;;;13.10;;
18259;SDS011;9256;52.236;5.712;2024-03-07T11:10:37;30.95;;;12.85;;
18259;SDS011;9256;52.236;5.712;2024-03-07T11:13:05;30.20;;;12.57;;
18259;SDS011;9256;52.236;5.712;2024-03-07T11:15:35;33.33;;;13.38;;
18259;SDS011;9256;52.236;5.712;2024-03-07T11:18:04;31.90;;;12.95;;
18259;SDS011;9256;52.236;5.712;2024-03-07T11:20:36;32.20;;;12.73;;
18259;SDS011;9256;52.236;5.712;2024-03-07T11:25:55;28.55;;;12.10;;
18259;SDS011;9256;52.236;5.712;2024-03-07T11:28:32;27.20;;;11.75;;
18259;SDS011;9256;52.236;5.712;2024-03-07T11:31:15;27.85;;;11.73;;
18259;SDS011;9256;52.236;5.712;2024-03-07T11:36:44;28.35;;;11.77;;
18259;SDS011;9256;52.236;5.712;2024-03-07T11:42:08;29.35;;;11.88;;
18259;SDS011;9256;52.236;5.712;2024-03-07T11:44:35;27.10;;;11.13;;
18259;SDS011;9256;52.236;5.712;2024-03-07T11:47:05;26.33;;;10.73;;
18259;SDS011;9256;52.236;5.712;2024-03-07T11:49:34;27.80;;;11.82;;
18259;SDS011;9256;52.236;5.712;2024-03-07T11:52:02;26.80;;;11.13;;
18259;SDS011;9256;52.236;5.712;2024-03-07T11:54:36;26.40;;;11.77;;
18259;SDS011;9256;52.236;5.712;2024-03-07T11:57:07;27.27;;;11.18;;
18259;SDS011;9256;52.236;5.712;2024-03-07T11:59:38;28.80;;;11.43;;
18259;SDS011;9256;52.236;5.712;2024-03-07T12:02:10;26.80;;;11.07;;
18259;SDS011;9256;52.236;5.712;2024-03-07T12:04:39;28.15;;;11.50;;
18259;SDS011;9256;52.236;5.712;2024-03-07T12:07:06;30.90;;;11.60;;
18259;SDS011;9256;52.236;5.712;2024-03-07T12:09:35;29.05;;;11.98;;
18259;SDS011;9256;52.236;5.712;2024-03-07T12:12:03;28.02;;;12.27;;
18259;SDS011;9256;52.236;5.712;2024-03-07T12:14:32;29.90;;;12.68;;
18259;SDS011;9256;52.236;5.712;2024-03-07T12:17:00;30.65;;;12.43;;
18259;SDS011;9256;52.236;5.712;2024-03-07T12:19:29;29.25;;;11.23;;
18259;SDS011;9256;52.236;5.712;2024-03-07T12:21:59;29.38;;;11.82;;
18259;SDS011;9256;52.236;5.712;2024-03-07T12:24:28;27.20;;;12.80;;
18259;SDS011;9256;52.236;5.712;2024-03-07T12:27:04;29.23;;;14.23;;
18259;SDS011;9256;52.236;5.712;2024-03-07T12:29:35;30.48;;;12.52;;
18259;SDS011;9256;52.236;5.712;2024-03-07T12:32:04;27.67;;;14.18;;
18259;SDS011;9256;52.236;5.712;2024-03-07T12:34:33;29.60;;;12.73;;
18259;SDS011;9256;52.236;5.712;2024-03-07T12:37:02;30.23;;;12.98;;
18259;SDS011;9256;52.236;5.712;2024-03-07T12:39:31;26.92;;;12.43;;
18259;SDS011;9256;52.236;5.712;2024-03-07T12:42:01;29.05;;;12.43;;
18259;SDS011;9256;52.236;5.712;2024-03-07T12:44:40;30.48;;;12.48;;
18259;SDS011;9256;52.236;5.712;2024-03-07T12:47:09;24.92;;;11.45;;
18259;SDS011;9256;52.236;5.712;2024-03-07T12:49:36;29.05;;;12.20;;
18259;SDS011;9256;52.236;5.712;2024-03-07T12:52:04;26.20;;;11.95;;
18259;SDS011;9256;52.236;5.712;2024-03-07T12:54:32;25.00;;;12.25;;
18259;SDS011;9256;52.236;5.712;2024-03-07T12:57:00;27.83;;;14.13;;
18259;SDS011;9256;52.236;5.712;2024-03-07T12:59:30;27.48;;;12.90;;
18259;SDS011;9256;52.236;5.712;2024-03-07T13:01:59;27.77;;;12.05;;
18259;SDS011;9256;52.236;5.712;2024-03-07T13:04:26;24.70;;;11.82;;
18259;SDS011;9256;52.236;5.712;2024-03-07T13:06:53;25.45;;;12.18;;
18259;SDS011;9256;52.236;5.712;2024-03-07T13:09:24;24.08;;;11.90;;
18259;SDS011;9256;52.236;5.712;2024-03-07T13:11:53;25.25;;;11.98;;
18259;SDS011;9256;52.236;5.712;2024-03-07T13:14:20;24.70;;;11.88;;
18259;SDS011;9256;52.236;5.712;2024-03-07T13:16:47;23.95;;;12.02;;
18259;SDS011;9256;52.236;5.712;2024-03-07T13:19:16;26.92;;;12.10;;
18259;SDS011;9256;52.236;5.712;2024-03-07T13:21:46;25.88;;;11.98;;
18259;SDS011;9256;52.236;5.712;2024-03-07T13:24:17;24.75;;;12.27;;
18259;SDS011;9256;52.236;5.712;2024-03-07T13:26:45;23.80;;;12.00;;
18259;SDS011;9256;52.236;5.712;2024-03-07T13:29:13;24.98;;;12.30;;
18259;SDS011;9256;52.236;5.712;2024-03-07T13:31:43;25.15;;;12.30;;
18259;SDS011;9256;52.236;5.712;2024-03-07T13:34:10;30.50;;;12.63;;
18259;SDS011;9256;52.236;5.712;2024-03-07T13:36:40;24.77;;;11.18;;
18259;SDS011;9256;52.236;5.712;2024-03-07T13:39:08;21.45;;;10.95;;
18259;SDS011;9256;52.236;5.712;2024-03-07T13:41:36;21.40;;;10.60;;
18259;SDS011;9256;52.236;5.712;2024-03-07T13:44:03;22.05;;;11.27;;
18259;SDS011;9256;52.236;5.712;2024-03-07T13:46:31;23.73;;;13.05;;
18259;SDS011;9256;52.236;5.712;2024-03-07T13:48:58;23.60;;;11.73;;
18259;SDS011;9256;52.236;5.712;2024-03-07T13:51:32;24.20;;;11.48;;
18259;SDS011;9256;52.236;5.712;2024-03-07T13:54:02;22.50;;;11.15;;
18259;SDS011;9256;52.236;5.712;2024-03-07T13:56:52;23.45;;;10.88;;
18259;SDS011;9256;52.236;5.712;2024-03-07T13:59:37;23.10;;;11.13;;
18259;SDS011;9256;52.236;5.712;2024-03-07T14:05:34;22.70;;;11.25;;
18259;SDS011;9256;52.236;5.712;2024-03-07T14:08:26;25.73;;;11.93;;
18259;SDS011;9256;52.236;5.712;2024-03-07T14:11:39;25.55;;;11.77;;
18259;SDS011;9256;52.236;5.712;2024-03-07T14:14:30;26.42;;;11.95;;
18259;SDS011;9256;52.236;5.712;2024-03-07T14:20:46;25.95;;;11.90;;
18259;SDS011;9256;52.236;5.712;2024-03-07T14:23:41;25.80;;;11.38;;
18259;SDS011;9256;52.236;5.712;2024-03-07T14:26:38;25.13;;;11.55;;
18259;SDS011;9256;52.236;5.712;2024-03-07T14:29:26;24.67;;;11.15;;
18259;SDS011;9256;52.236;5.712;2024-03-07T14:32:05;24.65;;;11.15;;
18259;SDS011;9256;52.236;5.712;2024-03-07T14:34:33;22.35;;;10.95;;
18259;SDS011;9256;52.236;5.712;2024-03-07T14:37:17;23.92;;;10.77;;
18259;SDS011;9256;52.236;5.712;2024-03-07T14:39:48;23.92;;;10.68;;
18259;SDS011;9256;52.236;5.712;2024-03-07T14:42:19;27.80;;;10.93;;
18259;SDS011;9256;52.236;5.712;2024-03-07T14:44:46;23.83;;;11.02;;
18259;SDS011;9256;52.236;5.712;2024-03-07T14:47:14;24.48;;;10.15;;
18259;SDS011;9256;52.236;5.712;2024-03-07T14:49:46;24.48;;;10.85;;
18259;SDS011;9256;52.236;5.712;2024-03-07T14:52:13;27.42;;;12.05;;
18259;SDS011;9256;52.236;5.712;2024-03-07T14:54:40;27.92;;;11.73;;
18259;SDS011;9256;52.236;5.712;2024-03-07T14:57:08;26.17;;;10.48;;
18259;SDS011;9256;52.236;5.712;2024-03-07T14:59:38;25.80;;;11.23;;